sensor_id;sensor_type;location;lat;lon;timestamp;P1;durP1;ratioP1;P2;durP2;ratioP2
18693;SDS011;9477;51.414;10.362;2023-05-10T00:01:37;5.60;;;2.70;;
18693;SDS011;9477;51.414;10.362;2023-05-10T00:03:40;6.67;;;2.60;;
18693;SDS011;9477;51.414;10.362;2023-05-10T00:05:43;5.47;;;2.63;;
18693;SDS011;9477;51.414;10.362;2023-05-10T00:07:46;2.50;;;2.20;;
18693;SDS011;9477;51.414;10.362;2023-05-10T00:09:49;4.37;;;2.70;;
18693;SDS011;9477;51.414;10.362;2023-05-10T00:11:51;5.27;;;2.93;;
18693;SDS011;9477;51.414;10.362;2023-05-10T00:13:54;4.07;;;2.70;;
18693;SDS011;9477;51.414;10.362;2023-05-10T00:15:57;4.47;;;2.47;;
18693;SDS011;9477;51.414;10.362;2023-05-10T00:18:01;3.50;;;2.43;;
18693;SDS011;9477;51.414;10.362;2023-05-10T00:20:05;5.70;;;2.50;;
18693;SDS011;9477;51.414;10.362;2023-05-10T00:22:08;6.87;;;3.07;;
18693;SDS011;9477;51.414;10.362;2023-05-10T00:24:11;4.17;;;2.50;;
18693;SDS011;9477;51.414;10.362;2023-05-10T00:26:14;3.73;;;2.53;;
18693;SDS011;9477;51.414;10.362;2023-05-10T00:28:17;5.50;;;2.70;;
18693;SDS011;9477;51.414;10.362;2023-05-10T00:30:20;4.17;;;2.53;;
18693;SDS011;9477;51.414;10.362;2023-05-10T00:32:23;5.03;;;2.20;;
18693;SDS011;9477;51.414;10.362;2023-05-10T00:34:27;5.70;;;2.40;;
18693;SDS011;9477;51.414;10.362;2023-05-10T00:36:30;5.53;;;2.30;;
18693;SDS011;9477;51.414;10.362;2023-05-10T00:38:33;3.43;;;2.57;;
18693;SDS011;9477;51.414;10.362;2023-05-10T00:40:36;4.57;;;2.60;;
18693;SDS011;9477;51.414;10.362;2023-05-10T00:42:39;4.10;;;2.47;;
18693;SDS011;9477;51.414;10.362;2023-05-10T00:44:42;4.03;;;2.60;;
18693;SDS011;9477;51.414;10.362;2023-05-10T00:46:44;6.13;;;2.30;;
18693;SDS011;9477;51.414;10.362;2023-05-10T00:48:48;4.57;;;2.90;;
18693;SDS011;9477;51.414;10.362;2023-05-10T00:50:52;2.90;;;2.17;;
18693;SDS011;9477;51.414;10.362;2023-05-10T00:52:55;6.10;;;2.40;;
18693;SDS011;9477;51.414;10.362;2023-05-10T00:54:58;4.10;;;2.40;;
18693;SDS011;9477;51.414;10.362;2023-05-10T00:57:02;3.63;;;2.63;;
18693;SDS011;9477;51.414;10.362;2023-05-10T00:59:05;7.07;;;2.90;;
18693;SDS011;9477;51.414;10.362;2023-05-10T01:01:08;4.17;;;2.70;;
18693;SDS011;9477;51.414;10.362;2023-05-10T01:03:12;4.93;;;2.60;;
18693;SDS011;9477;51.414;10.362;2023-05-10T01:05:15;5.13;;;3.13;;
18693;SDS011;9477;51.414;10.362;2023-05-10T01:07:19;3.37;;;2.40;;
18693;SDS011;9477;51.414;10.362;2023-05-10T01:09:22;4.60;;;2.67;;
18693;SDS011;9477;51.414;10.362;2023-05-10T01:11:27;4.77;;;2.83;;
18693;SDS011;9477;51.414;10.362;2023-05-10T01:13:31;4.30;;;2.57;;
18693;SDS011;9477;51.414;10.362;2023-05-10T01:15:35;3.87;;;2.43;;
18693;SDS011;9477;51.414;10.362;2023-05-10T01:17:39;5.27;;;2.70;;
18693;SDS011;9477;51.414;10.362;2023-05-10T01:19:44;5.53;;;2.60;;
18693;SDS011;9477;51.414;10.362;2023-05-10T01:21:48;4.20;;;2.70;;
18693;SDS011;9477;51.414;10.362;2023-05-10T01:26:41;4.63;;;2.70;;
18693;SDS011;9477;51.414;10.362;2023-05-10T01:29:11;7.03;;;2.80;;
18693;SDS011;9477;51.414;10.362;2023-05-10T01:31:29;4.43;;;2.43;;
18693;SDS011;9477;51.414;10.362;2023-05-10T01:33:43;3.73;;;2.80;;
18693;SDS011;9477;51.414;10.362;2023-05-10T01:35:51;6.67;;;2.70;;
18693;SDS011;9477;51.414;10.362;2023-05-10T01:37:59;4.23;;;2.53;;
18693;SDS011;9477;51.414;10.362;2023-05-10T01:40:13;7.40;;;2.70;;
18693;SDS011;9477;51.414;10.362;2023-05-10T01:42:21;3.37;;;2.57;;
18693;SDS011;9477;51.414;10.362;2023-05-10T01:44:28;5.00;;;2.47;;
18693;SDS011;9477;51.414;10.362;2023-05-10T01:46:37;4.57;;;2.73;;
18693;SDS011;9477;51.414;10.362;2023-05-10T01:48:45;5.77;;;2.63;;
18693;SDS011;9477;51.414;10.362;2023-05-10T01:50:50;8.33;;;2.60;;
18693;SDS011;9477;51.414;10.362;2023-05-10T01:52:55;6.13;;;2.47;;
18693;SDS011;9477;51.414;10.362;2023-05-10T01:55:01;3.17;;;2.50;;
18693;SDS011;9477;51.414;10.362;2023-05-10T01:57:06;7.57;;;2.70;;
18693;SDS011;9477;51.414;10.362;2023-05-10T01:59:15;6.40;;;2.80;;
18693;SDS011;9477;51.414;10.362;2023-05-10T02:01:20;3.40;;;2.60;;
18693;SDS011;9477;51.414;10.362;2023-05-10T02:03:24;5.70;;;2.67;;
18693;SDS011;9477;51.414;10.362;2023-05-10T02:05:30;2.67;;;2.43;;
18693;SDS011;9477;51.414;10.362;2023-05-10T02:07:35;4.00;;;2.53;;
18693;SDS011;9477;51.414;10.362;2023-05-10T02:09:39;4.37;;;2.47;;
18693;SDS011;9477;51.414;10.362;2023-05-10T02:11:43;4.23;;;2.83;;
18693;SDS011;9477;51.414;10.362;2023-05-10T02:13:47;4.17;;;2.60;;
18693;SDS011;9477;51.414;10.362;2023-05-10T02:15:51;3.30;;;2.90;;
18693;SDS011;9477;51.414;10.362;2023-05-10T02:17:55;5.27;;;2.67;;
18693;SDS011;9477;51.414;10.362;2023-05-10T02:19:59;6.00;;;2.60;;
18693;SDS011;9477;51.414;10.362;2023-05-10T02:22:04;4.00;;;2.90;;
18693;SDS011;9477;51.414;10.362;2023-05-10T02:24:09;3.37;;;2.70;;
18693;SDS011;9477;51.414;10.362;2023-05-10T02:26:13;5.60;;;2.70;;
18693;SDS011;9477;51.414;10.362;2023-05-10T02:28:19;3.30;;;2.47;;
18693;SDS011;9477;51.414;10.362;2023-05-10T02:30:23;4.73;;;3.00;;
18693;SDS011;9477;51.414;10.362;2023-05-10T02:32:26;7.07;;;2.60;;
18693;SDS011;9477;51.414;10.362;2023-05-10T02:34:31;7.13;;;2.60;;
18693;SDS011;9477;51.414;10.362;2023-05-10T02:36:34;4.17;;;2.57;;
18693;SDS011;9477;51.414;10.362;2023-05-10T02:38:40;3.63;;;2.60;;
18693;SDS011;9477;51.414;10.362;2023-05-10T02:40:43;5.37;;;2.83;;
18693;SDS011;9477;51.414;10.362;2023-05-10T02:42:48;5.73;;;2.83;;
18693;SDS011;9477;51.414;10.362;2023-05-10T02:44:54;3.33;;;2.50;;
18693;SDS011;9477;51.414;10.362;2023-05-10T02:47:07;6.03;;;2.70;;
18693;SDS011;9477;51.414;10.362;2023-05-10T02:49:10;7.57;;;2.80;;
18693;SDS011;9477;51.414;10.362;2023-05-10T02:51:13;3.33;;;2.77;;
18693;SDS011;9477;51.414;10.362;2023-05-10T02:53:22;7.13;;;3.00;;
18693;SDS011;9477;51.414;10.362;2023-05-10T02:55:31;6.93;;;2.90;;
18693;SDS011;9477;51.414;10.362;2023-05-10T02:57:38;4.90;;;2.80;;
18693;SDS011;9477;51.414;10.362;2023-05-10T02:59:44;5.30;;;2.83;;
18693;SDS011;9477;51.414;10.362;2023-05-10T03:01:47;4.77;;;3.10;;
18693;SDS011;9477;51.414;10.362;2023-05-10T03:03:50;4.97;;;2.80;;
18693;SDS011;9477;51.414;10.362;2023-05-10T03:05:53;4.23;;;2.90;;
18693;SDS011;9477;51.414;10.362;2023-05-10T03:07:57;4.37;;;3.00;;
18693;SDS011;9477;51.414;10.362;2023-05-10T03:09:59;3.80;;;2.93;;
18693;SDS011;9477;51.414;10.362;2023-05-10T03:12:06;4.57;;;3.27;;
18693;SDS011;9477;51.414;10.362;2023-05-10T03:14:21;4.37;;;3.07;;
18693;SDS011;9477;51.414;10.362;2023-05-10T03:16:33;5.23;;;3.27;;
18693;SDS011;9477;51.414;10.362;2023-05-10T03:18:47;4.27;;;3.00;;
18693;SDS011;9477;51.414;10.362;2023-05-10T03:20:57;10.33;;;5.60;;
18693;SDS011;9477;51.414;10.362;2023-05-10T03:23:04;15.33;;;11.10;;
18693;SDS011;9477;51.414;10.362;2023-05-10T03:25:13;5.53;;;4.37;;
18693;SDS011;9477;51.414;10.362;2023-05-10T03:27:20;5.27;;;3.40;;
18693;SDS011;9477;51.414;10.362;2023-05-10T03:29:24;4.13;;;3.33;;
18693;SDS011;9477;51.414;10.362;2023-05-10T03:31:28;5.27;;;3.60;;
18693;SDS011;9477;51.414;10.362;2023-05-10T03:33:31;5.60;;;3.50;;
18693;SDS011;9477;51.414;10.362;2023-05-10T03:35:34;6.47;;;3.53;;
18693;SDS011;9477;51.414;10.362;2023-05-10T03:37:37;7.63;;;3.87;;
18693;SDS011;9477;51.414;10.362;2023-05-10T03:39:40;5.00;;;3.60;;
18693;SDS011;9477;51.414;10.362;2023-05-10T03:41:43;4.57;;;3.80;;
18693;SDS011;9477;51.414;10.362;2023-05-10T03:43:47;5.00;;;3.43;;
18693;SDS011;9477;51.414;10.362;2023-05-10T03:45:50;6.70;;;3.90;;
18693;SDS011;9477;51.414;10.362;2023-05-10T03:47:53;5.40;;;3.80;;
18693;SDS011;9477;51.414;10.362;2023-05-10T03:49:56;5.13;;;3.53;;
18693;SDS011;9477;51.414;10.362;2023-05-10T03:51:59;5.13;;;3.47;;
18693;SDS011;9477;51.414;10.362;2023-05-10T03:54:02;5.00;;;3.90;;
18693;SDS011;9477;51.414;10.362;2023-05-10T03:56:05;4.23;;;3.60;;
18693;SDS011;9477;51.414;10.362;2023-05-10T03:58:10;6.17;;;3.77;;
18693;SDS011;9477;51.414;10.362;2023-05-10T04:00:15;8.53;;;4.00;;
18693;SDS011;9477;51.414;10.362;2023-05-10T04:02:18;6.03;;;4.07;;
18693;SDS011;9477;51.414;10.362;2023-05-10T04:04:21;9.10;;;4.17;;
18693;SDS011;9477;51.414;10.362;2023-05-10T04:06:24;6.73;;;4.03;;
18693;SDS011;9477;51.414;10.362;2023-05-10T04:08:27;4.87;;;3.80;;
18693;SDS011;9477;51.414;10.362;2023-05-10T04:10:30;6.67;;;4.10;;
18693;SDS011;9477;51.414;10.362;2023-05-10T04:12:33;5.90;;;3.80;;
18693;SDS011;9477;51.414;10.362;2023-05-10T04:14:36;6.30;;;3.90;;
18693;SDS011;9477;51.414;10.362;2023-05-10T04:16:40;5.50;;;3.60;;
18693;SDS011;9477;51.414;10.362;2023-05-10T04:18:43;4.50;;;3.50;;
18693;SDS011;9477;51.414;10.362;2023-05-10T04:20:46;7.23;;;3.67;;
18693;SDS011;9477;51.414;10.362;2023-05-10T04:22:49;4.03;;;3.50;;
18693;SDS011;9477;51.414;10.362;2023-05-10T04:24:52;7.20;;;3.70;;
18693;SDS011;9477;51.414;10.362;2023-05-10T04:26:55;4.27;;;3.50;;
18693;SDS011;9477;51.414;10.362;2023-05-10T04:28:58;7.33;;;3.87;;
18693;SDS011;9477;51.414;10.362;2023-05-10T04:31:01;4.40;;;3.70;;
18693;SDS011;9477;51.414;10.362;2023-05-10T04:33:06;7.40;;;3.50;;
18693;SDS011;9477;51.414;10.362;2023-05-10T04:35:09;4.47;;;3.50;;
18693;SDS011;9477;51.414;10.362;2023-05-10T04:37:12;6.90;;;3.50;;
18693;SDS011;9477;51.414;10.362;2023-05-10T04:39:15;5.77;;;3.70;;
18693;SDS011;9477;51.414;10.362;2023-05-10T04:41:18;7.20;;;3.70;;
18693;SDS011;9477;51.414;10.362;2023-05-10T04:43:21;4.03;;;3.63;;
18693;SDS011;9477;51.414;10.362;2023-05-10T04:45:24;5.37;;;3.87;;
18693;SDS011;9477;51.414;10.362;2023-05-10T04:47:27;4.63;;;3.83;;
18693;SDS011;9477;51.414;10.362;2023-05-10T04:49:31;7.53;;;3.70;;
18693;SDS011;9477;51.414;10.362;2023-05-10T04:51:34;5.07;;;4.00;;
18693;SDS011;9477;51.414;10.362;2023-05-10T04:53:37;7.53;;;3.60;;
18693;SDS011;9477;51.414;10.362;2023-05-10T04:55:39;5.20;;;3.50;;
18693;SDS011;9477;51.414;10.362;2023-05-10T04:57:42;6.90;;;3.90;;
18693;SDS011;9477;51.414;10.362;2023-05-10T04:59:46;8.17;;;4.03;;
18693;SDS011;9477;51.414;10.362;2023-05-10T05:01:50;5.00;;;3.97;;
18693;SDS011;9477;51.414;10.362;2023-05-10T05:03:53;9.97;;;4.03;;
18693;SDS011;9477;51.414;10.362;2023-05-10T05:05:58;4.53;;;3.70;;
18693;SDS011;9477;51.414;10.362;2023-05-10T05:08:01;10.17;;;4.10;;
18693;SDS011;9477;51.414;10.362;2023-05-10T05:10:04;4.50;;;4.10;;
18693;SDS011;9477;51.414;10.362;2023-05-10T05:12:08;4.80;;;4.20;;
18693;SDS011;9477;51.414;10.362;2023-05-10T05:14:14;5.33;;;4.60;;
18693;SDS011;9477;51.414;10.362;2023-05-10T05:16:17;5.07;;;4.30;;
18693;SDS011;9477;51.414;10.362;2023-05-10T05:18:20;6.73;;;4.40;;
18693;SDS011;9477;51.414;10.362;2023-05-10T05:20:23;7.43;;;4.70;;
18693;SDS011;9477;51.414;10.362;2023-05-10T05:22:27;6.93;;;4.60;;
18693;SDS011;9477;51.414;10.362;2023-05-10T05:24:34;6.37;;;4.00;;
18693;SDS011;9477;51.414;10.362;2023-05-10T05:26:38;9.70;;;6.90;;
18693;SDS011;9477;51.414;10.362;2023-05-10T05:28:41;9.43;;;6.40;;
18693;SDS011;9477;51.414;10.362;2023-05-10T05:30:44;7.13;;;5.17;;
18693;SDS011;9477;51.414;10.362;2023-05-10T05:32:47;7.47;;;5.13;;
18693;SDS011;9477;51.414;10.362;2023-05-10T05:34:50;6.43;;;4.90;;
18693;SDS011;9477;51.414;10.362;2023-05-10T05:36:53;8.70;;;4.90;;
18693;SDS011;9477;51.414;10.362;2023-05-10T05:38:57;8.80;;;5.23;;
18693;SDS011;9477;51.414;10.362;2023-05-10T05:41:00;8.37;;;4.93;;
18693;SDS011;9477;51.414;10.362;2023-05-10T05:43:04;6.03;;;5.00;;
18693;SDS011;9477;51.414;10.362;2023-05-10T05:45:07;7.23;;;5.00;;
18693;SDS011;9477;51.414;10.362;2023-05-10T05:47:14;6.00;;;4.80;;
18693;SDS011;9477;51.414;10.362;2023-05-10T05:49:17;6.30;;;4.43;;
18693;SDS011;9477;51.414;10.362;2023-05-10T05:51:20;5.70;;;4.80;;
18693;SDS011;9477;51.414;10.362;2023-05-10T05:53:23;6.70;;;5.20;;
18693;SDS011;9477;51.414;10.362;2023-05-10T05:55:27;7.23;;;5.50;;
18693;SDS011;9477;51.414;10.362;2023-05-10T05:57:30;10.10;;;5.90;;
18693;SDS011;9477;51.414;10.362;2023-05-10T05:59:33;11.17;;;5.87;;
18693;SDS011;9477;51.414;10.362;2023-05-10T06:01:36;7.13;;;5.60;;
18693;SDS011;9477;51.414;10.362;2023-05-10T06:03:39;6.03;;;4.83;;
18693;SDS011;9477;51.414;10.362;2023-05-10T06:05:42;6.70;;;5.30;;
18693;SDS011;9477;51.414;10.362;2023-05-10T06:07:45;6.77;;;4.70;;
18693;SDS011;9477;51.414;10.362;2023-05-10T06:09:48;6.70;;;4.47;;
18693;SDS011;9477;51.414;10.362;2023-05-10T06:11:52;6.03;;;4.43;;
18693;SDS011;9477;51.414;10.362;2023-05-10T06:13:55;4.80;;;4.30;;
18693;SDS011;9477;51.414;10.362;2023-05-10T06:15:58;7.13;;;4.30;;
18693;SDS011;9477;51.414;10.362;2023-05-10T06:18:01;5.53;;;4.23;;
18693;SDS011;9477;51.414;10.362;2023-05-10T06:20:04;6.83;;;4.37;;
18693;SDS011;9477;51.414;10.362;2023-05-10T06:22:08;5.50;;;4.07;;
18693;SDS011;9477;51.414;10.362;2023-05-10T06:24:11;6.03;;;4.20;;
18693;SDS011;9477;51.414;10.362;2023-05-10T06:26:14;5.07;;;3.73;;
18693;SDS011;9477;51.414;10.362;2023-05-10T06:28:18;4.10;;;3.70;;
18693;SDS011;9477;51.414;10.362;2023-05-10T06:30:22;8.07;;;5.10;;
18693;SDS011;9477;51.414;10.362;2023-05-10T06:32:28;4.90;;;3.80;;
18693;SDS011;9477;51.414;10.362;2023-05-10T06:34:31;3.90;;;3.47;;
18693;SDS011;9477;51.414;10.362;2023-05-10T06:36:34;3.83;;;3.43;;
18693;SDS011;9477;51.414;10.362;2023-05-10T06:38:37;4.40;;;3.13;;
18693;SDS011;9477;51.414;10.362;2023-05-10T06:40:41;3.27;;;2.97;;
18693;SDS011;9477;51.414;10.362;2023-05-10T06:42:44;3.70;;;3.30;;
18693;SDS011;9477;51.414;10.362;2023-05-10T06:44:48;3.40;;;3.10;;
18693;SDS011;9477;51.414;10.362;2023-05-10T06:46:51;3.67;;;3.07;;
18693;SDS011;9477;51.414;10.362;2023-05-10T06:48:56;3.40;;;2.97;;
18693;SDS011;9477;51.414;10.362;2023-05-10T06:50:59;4.97;;;3.90;;
18693;SDS011;9477;51.414;10.362;2023-05-10T06:53:01;3.63;;;2.73;;
18693;SDS011;9477;51.414;10.362;2023-05-10T06:55:05;3.30;;;3.00;;
18693;SDS011;9477;51.414;10.362;2023-05-10T06:57:09;3.13;;;2.60;;
18693;SDS011;9477;51.414;10.362;2023-05-10T06:59:30;2.40;;;2.17;;
18693;SDS011;9477;51.414;10.362;2023-05-10T07:01:34;3.70;;;2.47;;
18693;SDS011;9477;51.414;10.362;2023-05-10T07:03:37;2.90;;;2.50;;
18693;SDS011;9477;51.414;10.362;2023-05-10T07:05:40;2.83;;;2.27;;
18693;SDS011;9477;51.414;10.362;2023-05-10T07:07:43;5.30;;;4.20;;
18693;SDS011;9477;51.414;10.362;2023-05-10T07:09:46;2.20;;;2.00;;
18693;SDS011;9477;51.414;10.362;2023-05-10T07:11:50;1.93;;;1.80;;
18693;SDS011;9477;51.414;10.362;2023-05-10T07:13:52;2.10;;;1.90;;
18693;SDS011;9477;51.414;10.362;2023-05-10T07:15:56;3.10;;;2.33;;
18693;SDS011;9477;51.414;10.362;2023-05-10T07:18:00;1.93;;;1.73;;
18693;SDS011;9477;51.414;10.362;2023-05-10T07:20:04;3.90;;;2.30;;
18693;SDS011;9477;51.414;10.362;2023-05-10T07:22:08;2.17;;;1.70;;
18693;SDS011;9477;51.414;10.362;2023-05-10T07:24:11;4.90;;;1.67;;
18693;SDS011;9477;51.414;10.362;2023-05-10T07:26:14;1.63;;;1.53;;
18693;SDS011;9477;51.414;10.362;2023-05-10T07:28:16;3.53;;;1.60;;
18693;SDS011;9477;51.414;10.362;2023-05-10T07:30:20;5.33;;;1.30;;
18693;SDS011;9477;51.414;10.362;2023-05-10T07:32:23;2.50;;;1.27;;
18693;SDS011;9477;51.414;10.362;2023-05-10T07:34:27;1.60;;;1.50;;
18693;SDS011;9477;51.414;10.362;2023-05-10T07:36:31;1.30;;;1.20;;
18693;SDS011;9477;51.414;10.362;2023-05-10T07:38:34;1.77;;;1.17;;
18693;SDS011;9477;51.414;10.362;2023-05-10T07:40:39;1.30;;;1.20;;
18693;SDS011;9477;51.414;10.362;2023-05-10T07:42:42;1.63;;;1.10;;
18693;SDS011;9477;51.414;10.362;2023-05-10T07:44:45;1.20;;;1.00;;
18693;SDS011;9477;51.414;10.362;2023-05-10T07:46:48;1.37;;;1.10;;
18693;SDS011;9477;51.414;10.362;2023-05-10T07:48:51;1.67;;;1.30;;
18693;SDS011;9477;51.414;10.362;2023-05-10T07:50:55;2.47;;;1.30;;
18693;SDS011;9477;51.414;10.362;2023-05-10T07:52:58;1.20;;;1.13;;
18693;SDS011;9477;51.414;10.362;2023-05-10T07:55:01;2.50;;;1.10;;
18693;SDS011;9477;51.414;10.362;2023-05-10T07:57:05;1.53;;;1.10;;
18693;SDS011;9477;51.414;10.362;2023-05-10T07:59:08;1.93;;;1.27;;
18693;SDS011;9477;51.414;10.362;2023-05-10T08:01:13;2.10;;;1.20;;
18693;SDS011;9477;51.414;10.362;2023-05-10T08:03:15;4.23;;;1.43;;
18693;SDS011;9477;51.414;10.362;2023-05-10T08:05:18;0.90;;;0.90;;
18693;SDS011;9477;51.414;10.362;2023-05-10T08:07:22;0.97;;;0.97;;
18693;SDS011;9477;51.414;10.362;2023-05-10T08:09:26;0.70;;;0.70;;
18693;SDS011;9477;51.414;10.362;2023-05-10T08:11:29;0.77;;;0.77;;
18693;SDS011;9477;51.414;10.362;2023-05-10T08:13:35;1.00;;;0.60;;
18693;SDS011;9477;51.414;10.362;2023-05-10T08:15:37;1.43;;;0.53;;
18693;SDS011;9477;51.414;10.362;2023-05-10T08:17:40;0.97;;;0.60;;
18693;SDS011;9477;51.414;10.362;2023-05-10T08:19:44;0.87;;;0.50;;
18693;SDS011;9477;51.414;10.362;2023-05-10T08:21:47;0.50;;;0.50;;
18693;SDS011;9477;51.414;10.362;2023-05-10T08:23:51;0.60;;;0.40;;
18693;SDS011;9477;51.414;10.362;2023-05-10T08:25:54;0.50;;;0.50;;
18693;SDS011;9477;51.414;10.362;2023-05-10T08:27:57;1.80;;;0.53;;
18693;SDS011;9477;51.414;10.362;2023-05-10T08:30:00;0.47;;;0.47;;
18693;SDS011;9477;51.414;10.362;2023-05-10T08:32:03;0.83;;;0.57;;
18693;SDS011;9477;51.414;10.362;2023-05-10T08:34:06;1.43;;;0.60;;
18693;SDS011;9477;51.414;10.362;2023-05-10T08:36:09;0.50;;;0.50;;
18693;SDS011;9477;51.414;10.362;2023-05-10T08:38:12;0.47;;;0.40;;
18693;SDS011;9477;51.414;10.362;2023-05-10T08:40:16;0.40;;;0.40;;
18693;SDS011;9477;51.414;10.362;2023-05-10T08:42:21;0.40;;;0.40;;
18693;SDS011;9477;51.414;10.362;2023-05-10T08:44:27;0.33;;;0.33;;
18693;SDS011;9477;51.414;10.362;2023-05-10T08:46:31;0.60;;;0.47;;
18693;SDS011;9477;51.414;10.362;2023-05-10T08:48:37;0.60;;;0.50;;
18693;SDS011;9477;51.414;10.362;2023-05-10T08:50:42;0.50;;;0.50;;
18693;SDS011;9477;51.414;10.362;2023-05-10T08:52:45;0.67;;;0.53;;
18693;SDS011;9477;51.414;10.362;2023-05-10T08:54:49;0.33;;;0.33;;
18693;SDS011;9477;51.414;10.362;2023-05-10T08:56:54;0.40;;;0.40;;
18693;SDS011;9477;51.414;10.362;2023-05-10T08:58:57;0.80;;;0.60;;
18693;SDS011;9477;51.414;10.362;2023-05-10T09:01:00;0.50;;;0.50;;
18693;SDS011;9477;51.414;10.362;2023-05-10T09:03:03;1.27;;;0.60;;
18693;SDS011;9477;51.414;10.362;2023-05-10T09:05:07;0.77;;;0.40;;
18693;SDS011;9477;51.414;10.362;2023-05-10T09:07:11;0.40;;;0.40;;
18693;SDS011;9477;51.414;10.362;2023-05-10T09:09:14;0.67;;;0.60;;
18693;SDS011;9477;51.414;10.362;2023-05-10T09:11:19;0.83;;;0.60;;
18693;SDS011;9477;51.414;10.362;2023-05-10T09:13:24;0.60;;;0.60;;
18693;SDS011;9477;51.414;10.362;2023-05-10T09:15:27;0.83;;;0.60;;
18693;SDS011;9477;51.414;10.362;2023-05-10T09:17:30;0.70;;;0.50;;
18693;SDS011;9477;51.414;10.362;2023-05-10T09:19:33;1.93;;;0.77;;
18693;SDS011;9477;51.414;10.362;2023-05-10T09:21:36;1.23;;;0.63;;
18693;SDS011;9477;51.414;10.362;2023-05-10T09:23:42;0.70;;;0.70;;
18693;SDS011;9477;51.414;10.362;2023-05-10T09:25:48;0.73;;;0.50;;
18693;SDS011;9477;51.414;10.362;2023-05-10T09:28:06;0.70;;;0.70;;
18693;SDS011;9477;51.414;10.362;2023-05-10T09:30:14;1.10;;;0.60;;
18693;SDS011;9477;51.414;10.362;2023-05-10T09:32:17;1.33;;;0.70;;
18693;SDS011;9477;51.414;10.362;2023-05-10T09:34:22;1.00;;;0.80;;
18693;SDS011;9477;51.414;10.362;2023-05-10T09:36:31;0.67;;;0.67;;
18693;SDS011;9477;51.414;10.362;2023-05-10T09:38:44;2.50;;;1.00;;
18693;SDS011;9477;51.414;10.362;2023-05-10T09:40:50;12.60;;;4.90;;
18693;SDS011;9477;51.414;10.362;2023-05-10T09:42:57;0.90;;;0.83;;
18693;SDS011;9477;51.414;10.362;2023-05-10T09:45:01;29.13;;;8.37;;
18693;SDS011;9477;51.414;10.362;2023-05-10T09:47:06;1.67;;;0.90;;
18693;SDS011;9477;51.414;10.362;2023-05-10T09:49:09;4.17;;;1.90;;
18693;SDS011;9477;51.414;10.362;2023-05-10T09:51:19;5.60;;;1.50;;
18693;SDS011;9477;51.414;10.362;2023-05-10T09:53:22;2.60;;;0.80;;
18693;SDS011;9477;51.414;10.362;2023-05-10T09:55:26;1.90;;;0.90;;
18693;SDS011;9477;51.414;10.362;2023-05-10T09:57:41;2.10;;;1.00;;
18693;SDS011;9477;51.414;10.362;2023-05-10T09:59:44;1.03;;;0.80;;
18693;SDS011;9477;51.414;10.362;2023-05-10T10:01:49;0.87;;;0.87;;
18693;SDS011;9477;51.414;10.362;2023-05-10T10:03:53;1.00;;;1.00;;
18693;SDS011;9477;51.414;10.362;2023-05-10T10:06:01;1.80;;;1.07;;
18693;SDS011;9477;51.414;10.362;2023-05-10T10:08:26;1.27;;;1.00;;
18693;SDS011;9477;51.414;10.362;2023-05-10T10:10:30;4.30;;;1.30;;
18693;SDS011;9477;51.414;10.362;2023-05-10T10:12:34;3.77;;;1.30;;
18693;SDS011;9477;51.414;10.362;2023-05-10T10:14:37;3.07;;;1.33;;
18693;SDS011;9477;51.414;10.362;2023-05-10T10:16:40;4.33;;;1.90;;
18693;SDS011;9477;51.414;10.362;2023-05-10T10:19:04;0.90;;;0.90;;
18693;SDS011;9477;51.414;10.362;2023-05-10T10:21:08;1.10;;;0.80;;
18693;SDS011;9477;51.414;10.362;2023-05-10T10:23:11;1.67;;;1.00;;
18693;SDS011;9477;51.414;10.362;2023-05-10T10:25:18;1.07;;;0.80;;
18693;SDS011;9477;51.414;10.362;2023-05-10T10:27:23;1.40;;;0.80;;
18693;SDS011;9477;51.414;10.362;2023-05-10T10:29:31;3.37;;;1.00;;
18693;SDS011;9477;51.414;10.362;2023-05-10T10:31:40;1.37;;;0.70;;
18693;SDS011;9477;51.414;10.362;2023-05-10T10:33:54;6.80;;;4.70;;
18693;SDS011;9477;51.414;10.362;2023-05-10T10:36:03;1.90;;;1.80;;
18693;SDS011;9477;51.414;10.362;2023-05-10T10:38:07;2.63;;;0.97;;
18693;SDS011;9477;51.414;10.362;2023-05-10T10:40:23;2.17;;;1.63;;
18693;SDS011;9477;51.414;10.362;2023-05-10T10:42:43;2.13;;;1.13;;
18693;SDS011;9477;51.414;10.362;2023-05-10T10:44:47;2.17;;;0.90;;
18693;SDS011;9477;51.414;10.362;2023-05-10T10:47:05;2.23;;;0.80;;
18693;SDS011;9477;51.414;10.362;2023-05-10T10:49:14;1.37;;;0.77;;
18693;SDS011;9477;51.414;10.362;2023-05-10T10:51:19;0.70;;;0.70;;
18693;SDS011;9477;51.414;10.362;2023-05-10T10:53:22;2.43;;;0.60;;
18693;SDS011;9477;51.414;10.362;2023-05-10T10:55:28;0.93;;;0.70;;
18693;SDS011;9477;51.414;10.362;2023-05-10T10:57:31;0.60;;;0.60;;
18693;SDS011;9477;51.414;10.362;2023-05-10T10:59:35;1.60;;;0.70;;
18693;SDS011;9477;51.414;10.362;2023-05-10T11:01:43;1.47;;;0.80;;
18693;SDS011;9477;51.414;10.362;2023-05-10T11:04:16;1.53;;;0.70;;
18693;SDS011;9477;51.414;10.362;2023-05-10T11:06:29;1.43;;;0.67;;
18693;SDS011;9477;51.414;10.362;2023-05-10T11:08:34;0.87;;;0.60;;
18693;SDS011;9477;51.414;10.362;2023-05-10T11:10:54;0.93;;;0.83;;
18693;SDS011;9477;51.414;10.362;2023-05-10T11:13:06;0.67;;;0.63;;
18693;SDS011;9477;51.414;10.362;2023-05-10T11:15:11;1.23;;;0.60;;
18693;SDS011;9477;51.414;10.362;2023-05-10T11:17:24;1.20;;;0.80;;
18693;SDS011;9477;51.414;10.362;2023-05-10T11:19:29;1.67;;;0.67;;
18693;SDS011;9477;51.414;10.362;2023-05-10T11:21:44;0.50;;;0.50;;
18693;SDS011;9477;51.414;10.362;2023-05-10T11:23:49;2.53;;;0.73;;
18693;SDS011;9477;51.414;10.362;2023-05-10T11:25:52;0.50;;;0.50;;
18693;SDS011;9477;51.414;10.362;2023-05-10T11:27:56;0.60;;;0.60;;
18693;SDS011;9477;51.414;10.362;2023-05-10T11:29:59;0.70;;;0.60;;
18693;SDS011;9477;51.414;10.362;2023-05-10T11:32:05;0.63;;;0.63;;
18693;SDS011;9477;51.414;10.362;2023-05-10T11:34:09;1.13;;;0.70;;
18693;SDS011;9477;51.414;10.362;2023-05-10T11:36:12;1.27;;;0.80;;
18693;SDS011;9477;51.414;10.362;2023-05-10T11:38:17;0.67;;;0.67;;
18693;SDS011;9477;51.414;10.362;2023-05-10T11:40:21;0.60;;;0.60;;
18693;SDS011;9477;51.414;10.362;2023-05-10T11:42:26;1.20;;;1.10;;
18693;SDS011;9477;51.414;10.362;2023-05-10T11:44:30;1.90;;;0.80;;
18693;SDS011;9477;51.414;10.362;2023-05-10T11:46:33;1.33;;;0.93;;
18693;SDS011;9477;51.414;10.362;2023-05-10T11:48:36;1.10;;;0.80;;
18693;SDS011;9477;51.414;10.362;2023-05-10T11:50:41;1.00;;;0.83;;
18693;SDS011;9477;51.414;10.362;2023-05-10T11:52:50;3.80;;;0.67;;
18693;SDS011;9477;51.414;10.362;2023-05-10T11:54:55;0.60;;;0.60;;
18693;SDS011;9477;51.414;10.362;2023-05-10T11:56:58;1.33;;;0.70;;
18693;SDS011;9477;51.414;10.362;2023-05-10T11:59:02;0.80;;;0.60;;
18693;SDS011;9477;51.414;10.362;2023-05-10T12:01:06;0.70;;;0.70;;
18693;SDS011;9477;51.414;10.362;2023-05-10T12:03:13;2.57;;;0.93;;
18693;SDS011;9477;51.414;10.362;2023-05-10T12:05:16;1.37;;;0.90;;
18693;SDS011;9477;51.414;10.362;2023-05-10T12:07:19;2.03;;;0.77;;
18693;SDS011;9477;51.414;10.362;2023-05-10T12:09:22;1.33;;;1.00;;
18693;SDS011;9477;51.414;10.362;2023-05-10T12:11:41;1.40;;;0.90;;
18693;SDS011;9477;51.414;10.362;2023-05-10T12:13:44;1.70;;;1.00;;
18693;SDS011;9477;51.414;10.362;2023-05-10T12:15:49;0.90;;;0.83;;
18693;SDS011;9477;51.414;10.362;2023-05-10T12:17:52;1.40;;;0.77;;
18693;SDS011;9477;51.414;10.362;2023-05-10T12:19:58;0.80;;;0.80;;
18693;SDS011;9477;51.414;10.362;2023-05-10T12:22:04;1.67;;;0.80;;
18693;SDS011;9477;51.414;10.362;2023-05-10T12:24:07;1.23;;;0.70;;
18693;SDS011;9477;51.414;10.362;2023-05-10T12:26:10;1.63;;;0.90;;
18693;SDS011;9477;51.414;10.362;2023-05-10T12:28:14;1.23;;;0.80;;
18693;SDS011;9477;51.414;10.362;2023-05-10T12:30:21;0.83;;;0.60;;
18693;SDS011;9477;51.414;10.362;2023-05-10T12:32:36;2.10;;;0.70;;
18693;SDS011;9477;51.414;10.362;2023-05-10T12:34:40;0.60;;;0.60;;
18693;SDS011;9477;51.414;10.362;2023-05-10T12:36:43;1.93;;;0.90;;